sensor_id;sensor_type;location;lat;lon;timestamp;P1;durP1;ratioP1;P2;durP2;ratioP2
59169;SDS011;52474;52.236;5.114;2023-02-22T00:01:27;73.70;;;17.58;;
59169;SDS011;52474;52.236;5.114;2023-02-22T00:04:00;71.05;;;19.75;;
59169;SDS011;52474;52.236;5.114;2023-02-22T00:06:28;79.55;;;20.33;;
59169;SDS011;52474;52.236;5.114;2023-02-22T00:08:55;70.93;;;18.10;;
59169;SDS011;52474;52.236;5.114;2023-02-22T00:11:21;64.03;;;19.00;;
59169;SDS011;52474;52.236;5.114;2023-02-22T00:13:47;66.75;;;18.20;;
59169;SDS011;52474;52.236;5.114;2023-02-22T00:16:19;67.18;;;18.35;;
59169;SDS011;52474;52.236;5.114;2023-02-22T00:18:46;67.47;;;18.20;;
59169;SDS011;52474;52.236;5.114;2023-02-22T00:21:13;70.07;;;17.83;;
59169;SDS011;52474;52.236;5.114;2023-02-22T00:23:42;67.03;;;17.15;;
59169;SDS011;52474;52.236;5.114;2023-02-22T00:26:13;63.65;;;17.10;;
59169;SDS011;52474;52.236;5.114;2023-02-22T00:28:44;60.47;;;17.10;;
59169;SDS011;52474;52.236;5.114;2023-02-22T00:31:14;55.83;;;18.25;;
59169;SDS011;52474;52.236;5.114;2023-02-22T00:33:40;65.40;;;18.77;;
59169;SDS011;52474;52.236;5.114;2023-02-22T00:36:07;69.53;;;17.27;;
59169;SDS011;52474;52.236;5.114;2023-02-22T00:38:33;65.95;;;18.42;;
59169;SDS011;52474;52.236;5.114;2023-02-22T00:41:00;63.88;;;17.55;;
59169;SDS011;52474;52.236;5.114;2023-02-22T00:43:26;59.03;;;17.67;;
59169;SDS011;52474;52.236;5.114;2023-02-22T00:45:52;61.10;;;17.75;;
59169;SDS011;52474;52.236;5.114;2023-02-22T00:48:18;65.07;;;18.50;;
59169;SDS011;52474;52.236;5.114;2023-02-22T00:50:44;65.20;;;18.08;;
59169;SDS011;52474;52.236;5.114;2023-02-22T00:53:12;61.83;;;16.08;;
59169;SDS011;52474;52.236;5.114;2023-02-22T00:55:38;59.65;;;17.55;;
59169;SDS011;52474;52.236;5.114;2023-02-22T00:58:05;62.72;;;19.15;;
59169;SDS011;52474;52.236;5.114;2023-02-22T01:00:33;57.97;;;17.52;;
59169;SDS011;52474;52.236;5.114;2023-02-22T01:03:07;62.97;;;16.98;;
59169;SDS011;52474;52.236;5.114;2023-02-22T01:05:35;54.47;;;17.80;;
59169;SDS011;52474;52.236;5.114;2023-02-22T01:08:03;62.75;;;19.30;;
59169;SDS011;52474;52.236;5.114;2023-02-22T01:10:32;51.30;;;16.30;;
59169;SDS011;52474;52.236;5.114;2023-02-22T01:12:59;51.70;;;17.17;;
59169;SDS011;52474;52.236;5.114;2023-02-22T01:15:26;52.67;;;15.77;;
59169;SDS011;52474;52.236;5.114;2023-02-22T01:17:55;53.70;;;16.75;;
59169;SDS011;52474;52.236;5.114;2023-02-22T01:20:23;45.40;;;15.25;;
59169;SDS011;52474;52.236;5.114;2023-02-22T01:22:51;49.20;;;16.25;;
59169;SDS011;52474;52.236;5.114;2023-02-22T01:25:19;49.85;;;15.48;;
59169;SDS011;52474;52.236;5.114;2023-02-22T01:27:47;49.88;;;16.17;;
59169;SDS011;52474;52.236;5.114;2023-02-22T01:30:14;56.05;;;17.33;;
59169;SDS011;52474;52.236;5.114;2023-02-22T01:32:44;55.30;;;19.58;;
59169;SDS011;52474;52.236;5.114;2023-02-22T01:35:13;55.97;;;17.17;;
59169;SDS011;52474;52.236;5.114;2023-02-22T01:37:43;50.67;;;17.95;;
59169;SDS011;52474;52.236;5.114;2023-02-22T01:40:13;52.83;;;17.45;;
59169;SDS011;52474;52.236;5.114;2023-02-22T01:42:42;52.42;;;18.05;;
59169;SDS011;52474;52.236;5.114;2023-02-22T01:50:28;50.10;;;16.63;;
59169;SDS011;52474;52.236;5.114;2023-02-22T01:52:57;53.70;;;16.60;;
59169;SDS011;52474;52.236;5.114;2023-02-22T01:55:23;53.47;;;17.20;;
59169;SDS011;52474;52.236;5.114;2023-02-22T01:57:49;56.45;;;18.08;;
59169;SDS011;52474;52.236;5.114;2023-02-22T02:00:16;52.35;;;16.30;;
59169;SDS011;52474;52.236;5.114;2023-02-22T02:02:49;51.42;;;16.73;;
59169;SDS011;52474;52.236;5.114;2023-02-22T02:05:27;56.67;;;18.45;;
59169;SDS011;52474;52.236;5.114;2023-02-22T02:07:56;53.97;;;18.08;;
59169;SDS011;52474;52.236;5.114;2023-02-22T02:10:22;48.47;;;16.20;;
59169;SDS011;52474;52.236;5.114;2023-02-22T02:12:49;50.20;;;15.70;;
59169;SDS011;52474;52.236;5.114;2023-02-22T02:17:54;51.90;;;18.75;;
59169;SDS011;52474;52.236;5.114;2023-02-22T02:20:24;53.50;;;17.60;;
59169;SDS011;52474;52.236;5.114;2023-02-22T02:23:16;49.88;;;17.80;;
59169;SDS011;52474;52.236;5.114;2023-02-22T02:26:22;50.08;;;16.65;;
59169;SDS011;52474;52.236;5.114;2023-02-22T02:31:58;52.35;;;16.80;;
59169;SDS011;52474;52.236;5.114;2023-02-22T02:40:22;47.13;;;16.58;;
59169;SDS011;52474;52.236;5.114;2023-02-22T02:43:02;50.08;;;16.65;;
59169;SDS011;52474;52.236;5.114;2023-02-22T02:45:46;51.72;;;16.00;;
59169;SDS011;52474;52.236;5.114;2023-02-22T02:48:20;51.20;;;16.17;;
59169;SDS011;52474;52.236;5.114;2023-02-22T02:50:50;46.72;;;15.60;;
59169;SDS011;52474;52.236;5.114;2023-02-22T02:53:20;53.28;;;16.73;;
59169;SDS011;52474;52.236;5.114;2023-02-22T02:55:49;48.60;;;16.13;;
59169;SDS011;52474;52.236;5.114;2023-02-22T02:58:20;44.05;;;15.82;;
59169;SDS011;52474;52.236;5.114;2023-02-22T03:00:48;50.05;;;15.80;;
59169;SDS011;52474;52.236;5.114;2023-02-22T03:03:40;45.67;;;14.70;;
59169;SDS011;52474;52.236;5.114;2023-02-22T03:14:42;46.85;;;15.52;;
59169;SDS011;52474;52.236;5.114;2023-02-22T03:23:31;51.55;;;16.15;;
59169;SDS011;52474;52.236;5.114;2023-02-22T03:26:03;49.90;;;16.57;;
59169;SDS011;52474;52.236;5.114;2023-02-22T03:28:36;53.83;;;16.48;;
59169;SDS011;52474;52.236;5.114;2023-02-22T03:31:13;45.30;;;15.18;;
59169;SDS011;52474;52.236;5.114;2023-02-22T03:33:48;48.78;;;16.73;;
59169;SDS011;52474;52.236;5.114;2023-02-22T03:36:19;48.88;;;17.30;;
59169;SDS011;52474;52.236;5.114;2023-02-22T03:38:52;49.70;;;17.02;;
59169;SDS011;52474;52.236;5.114;2023-02-22T03:41:21;51.85;;;16.88;;
59169;SDS011;52474;52.236;5.114;2023-02-22T03:44:02;51.83;;;15.82;;
59169;SDS011;52474;52.236;5.114;2023-02-22T03:46:31;53.00;;;17.23;;
59169;SDS011;52474;52.236;5.114;2023-02-22T03:49:09;59.75;;;17.17;;
59169;SDS011;52474;52.236;5.114;2023-02-22T03:51:44;49.22;;;16.85;;
59169;SDS011;52474;52.236;5.114;2023-02-22T03:54:11;45.25;;;17.48;;
59169;SDS011;52474;52.236;5.114;2023-02-22T03:56:43;48.17;;;15.93;;
59169;SDS011;52474;52.236;5.114;2023-02-22T03:59:17;55.47;;;17.10;;
59169;SDS011;52474;52.236;5.114;2023-02-22T04:01:49;56.45;;;18.63;;
59169;SDS011;52474;52.236;5.114;2023-02-22T04:04:16;55.03;;;16.95;;
59169;SDS011;52474;52.236;5.114;2023-02-22T04:06:43;49.45;;;16.38;;
59169;SDS011;52474;52.236;5.114;2023-02-22T04:09:10;53.10;;;16.52;;
59169;SDS011;52474;52.236;5.114;2023-02-22T04:11:36;55.17;;;17.02;;
59169;SDS011;52474;52.236;5.114;2023-02-22T04:14:02;51.25;;;16.88;;
59169;SDS011;52474;52.236;5.114;2023-02-22T04:16:28;52.20;;;17.10;;
59169;SDS011;52474;52.236;5.114;2023-02-22T04:18:54;52.47;;;17.60;;
59169;SDS011;52474;52.236;5.114;2023-02-22T04:21:20;55.17;;;16.35;;
59169;SDS011;52474;52.236;5.114;2023-02-22T04:23:48;50.92;;;16.45;;
59169;SDS011;52474;52.236;5.114;2023-02-22T04:26:14;53.60;;;16.70;;
59169;SDS011;52474;52.236;5.114;2023-02-22T04:31:14;52.75;;;17.58;;
59169;SDS011;52474;52.236;5.114;2023-02-22T04:33:41;58.72;;;17.10;;
59169;SDS011;52474;52.236;5.114;2023-02-22T04:36:09;53.97;;;16.55;;
59169;SDS011;52474;52.236;5.114;2023-02-22T04:38:36;54.28;;;16.08;;
59169;SDS011;52474;52.236;5.114;2023-02-22T04:41:02;54.15;;;16.67;;
59169;SDS011;52474;52.236;5.114;2023-02-22T04:43:27;54.63;;;17.40;;
59169;SDS011;52474;52.236;5.114;2023-02-22T04:46:01;57.17;;;18.27;;
59169;SDS011;52474;52.236;5.114;2023-02-22T04:48:28;63.78;;;18.83;;
59169;SDS011;52474;52.236;5.114;2023-02-22T04:50:54;57.78;;;18.20;;
59169;SDS011;52474;52.236;5.114;2023-02-22T04:53:20;58.75;;;17.52;;
59169;SDS011;52474;52.236;5.114;2023-02-22T04:55:46;55.22;;;17.42;;
59169;SDS011;52474;52.236;5.114;2023-02-22T04:58:11;56.88;;;17.50;;
59169;SDS011;52474;52.236;5.114;2023-02-22T05:00:37;56.45;;;17.20;;
59169;SDS011;52474;52.236;5.114;2023-02-22T05:03:05;57.03;;;17.42;;
59169;SDS011;52474;52.236;5.114;2023-02-22T05:05:31;63.95;;;18.48;;
59169;SDS011;52474;52.236;5.114;2023-02-22T05:07:56;56.65;;;18.23;;
59169;SDS011;52474;52.236;5.114;2023-02-22T05:10:22;59.38;;;18.52;;
59169;SDS011;52474;52.236;5.114;2023-02-22T05:12:49;63.70;;;19.80;;
59169;SDS011;52474;52.236;5.114;2023-02-22T05:15:17;61.88;;;18.67;;
59169;SDS011;52474;52.236;5.114;2023-02-22T05:17:44;62.13;;;18.08;;
59169;SDS011;52474;52.236;5.114;2023-02-22T05:20:23;61.53;;;17.42;;
59169;SDS011;52474;52.236;5.114;2023-02-22T05:22:56;55.75;;;16.52;;
59169;SDS011;52474;52.236;5.114;2023-02-22T05:25:23;64.55;;;17.85;;
59169;SDS011;52474;52.236;5.114;2023-02-22T05:27:50;59.95;;;17.85;;
59169;SDS011;52474;52.236;5.114;2023-02-22T05:30:19;62.40;;;18.08;;
59169;SDS011;52474;52.236;5.114;2023-02-22T05:32:50;59.72;;;18.92;;
59169;SDS011;52474;52.236;5.114;2023-02-22T05:35:16;63.58;;;17.52;;
59169;SDS011;52474;52.236;5.114;2023-02-22T05:37:43;62.83;;;18.38;;
59169;SDS011;52474;52.236;5.114;2023-02-22T05:40:09;61.58;;;18.48;;
59169;SDS011;52474;52.236;5.114;2023-02-22T05:42:35;61.92;;;19.08;;
59169;SDS011;52474;52.236;5.114;2023-02-22T05:45:00;61.67;;;19.15;;
59169;SDS011;52474;52.236;5.114;2023-02-22T05:47:26;68.55;;;20.67;;
59169;SDS011;52474;52.236;5.114;2023-02-22T05:49:52;59.72;;;18.20;;
59169;SDS011;52474;52.236;5.114;2023-02-22T05:52:17;65.43;;;18.52;;
59169;SDS011;52474;52.236;5.114;2023-02-22T05:54:43;64.43;;;18.20;;
59169;SDS011;52474;52.236;5.114;2023-02-22T05:57:09;68.10;;;20.15;;
59169;SDS011;52474;52.236;5.114;2023-02-22T05:59:34;65.32;;;18.52;;
59169;SDS011;52474;52.236;5.114;2023-02-22T06:02:00;67.50;;;18.95;;
59169;SDS011;52474;52.236;5.114;2023-02-22T06:04:26;61.83;;;19.08;;
59169;SDS011;52474;52.236;5.114;2023-02-22T06:06:52;68.50;;;19.52;;
59169;SDS011;52474;52.236;5.114;2023-02-22T06:09:17;67.95;;;19.73;;
59169;SDS011;52474;52.236;5.114;2023-02-22T06:11:44;68.15;;;19.67;;
59169;SDS011;52474;52.236;5.114;2023-02-22T06:14:09;67.25;;;18.90;;
59169;SDS011;52474;52.236;5.114;2023-02-22T06:16:35;73.07;;;19.88;;
59169;SDS011;52474;52.236;5.114;2023-02-22T06:19:01;78.97;;;21.15;;
59169;SDS011;52474;52.236;5.114;2023-02-22T06:21:26;68.95;;;20.95;;
59169;SDS011;52474;52.236;5.114;2023-02-22T06:23:52;68.07;;;19.33;;
59169;SDS011;52474;52.236;5.114;2023-02-22T06:26:17;73.53;;;20.67;;
59169;SDS011;52474;52.236;5.114;2023-02-22T06:28:44;72.75;;;20.48;;
59169;SDS011;52474;52.236;5.114;2023-02-22T06:31:10;74.60;;;19.60;;
59169;SDS011;52474;52.236;5.114;2023-02-22T06:33:36;71.88;;;19.05;;
59169;SDS011;52474;52.236;5.114;2023-02-22T06:36:02;80.90;;;19.90;;
59169;SDS011;52474;52.236;5.114;2023-02-22T06:38:29;67.75;;;20.30;;
59169;SDS011;52474;52.236;5.114;2023-02-22T06:40:55;75.10;;;20.10;;
59169;SDS011;52474;52.236;5.114;2023-02-22T06:43:21;82.95;;;21.50;;
59169;SDS011;52474;52.236;5.114;2023-02-22T06:45:49;79.15;;;21.35;;
59169;SDS011;52474;52.236;5.114;2023-02-22T06:48:16;79.47;;;19.98;;
59169;SDS011;52474;52.236;5.114;2023-02-22T06:50:42;77.75;;;21.35;;
59169;SDS011;52474;52.236;5.114;2023-02-22T06:53:08;86.78;;;22.42;;
59169;SDS011;52474;52.236;5.114;2023-02-22T06:55:34;79.07;;;20.70;;
59169;SDS011;52474;52.236;5.114;2023-02-22T06:58:00;80.07;;;21.20;;
59169;SDS011;52474;52.236;5.114;2023-02-22T07:00:28;84.35;;;21.60;;
59169;SDS011;52474;52.236;5.114;2023-02-22T07:02:56;86.60;;;21.85;;
59169;SDS011;52474;52.236;5.114;2023-02-22T07:05:23;79.18;;;21.30;;
59169;SDS011;52474;52.236;5.114;2023-02-22T07:07:51;89.63;;;22.48;;
59169;SDS011;52474;52.236;5.114;2023-02-22T07:10:20;86.75;;;22.33;;
59169;SDS011;52474;52.236;5.114;2023-02-22T07:12:51;90.35;;;21.35;;
59169;SDS011;52474;52.236;5.114;2023-02-22T07:15:17;85.90;;;20.67;;
59169;SDS011;52474;52.236;5.114;2023-02-22T07:17:45;80.25;;;20.30;;
59169;SDS011;52474;52.236;5.114;2023-02-22T07:20:11;80.43;;;21.13;;
59169;SDS011;52474;52.236;5.114;2023-02-22T07:22:37;86.72;;;20.27;;
59169;SDS011;52474;52.236;5.114;2023-02-22T07:25:05;79.47;;;20.35;;
59169;SDS011;52474;52.236;5.114;2023-02-22T07:27:31;72.53;;;19.30;;
59169;SDS011;52474;52.236;5.114;2023-02-22T07:29:57;79.28;;;19.90;;
59169;SDS011;52474;52.236;5.114;2023-02-22T07:32:26;80.15;;;19.20;;
59169;SDS011;52474;52.236;5.114;2023-02-22T07:34:51;73.22;;;18.83;;
59169;SDS011;52474;52.236;5.114;2023-02-22T07:37:17;78.05;;;19.58;;
59169;SDS011;52474;52.236;5.114;2023-02-22T07:39:43;73.88;;;19.23;;
59169;SDS011;52474;52.236;5.114;2023-02-22T07:42:08;82.90;;;18.92;;
59169;SDS011;52474;52.236;5.114;2023-02-22T07:44:35;74.50;;;19.95;;
59169;SDS011;52474;52.236;5.114;2023-02-22T07:47:01;78.15;;;20.13;;
59169;SDS011;52474;52.236;5.114;2023-02-22T07:49:27;76.68;;;18.40;;
59169;SDS011;52474;52.236;5.114;2023-02-22T07:51:53;81.43;;;20.48;;
59169;SDS011;52474;52.236;5.114;2023-02-22T07:54:19;65.28;;;17.58;;
59169;SDS011;52474;52.236;5.114;2023-02-22T07:56:45;73.75;;;18.77;;
59169;SDS011;52474;52.236;5.114;2023-02-22T07:59:12;78.18;;;19.65;;
59169;SDS011;52474;52.236;5.114;2023-02-22T08:01:38;64.80;;;18.58;;
59169;SDS011;52474;52.236;5.114;2023-02-22T08:04:04;64.15;;;17.80;;
59169;SDS011;52474;52.236;5.114;2023-02-22T08:06:30;77.30;;;20.60;;
59169;SDS011;52474;52.236;5.114;2023-02-22T08:08:56;75.70;;;20.45;;
59169;SDS011;52474;52.236;5.114;2023-02-22T08:11:23;68.35;;;20.27;;
59169;SDS011;52474;52.236;5.114;2023-02-22T08:13:49;75.78;;;18.70;;
59169;SDS011;52474;52.236;5.114;2023-02-22T08:16:15;73.05;;;19.13;;
59169;SDS011;52474;52.236;5.114;2023-02-22T08:18:41;75.05;;;19.38;;
59169;SDS011;52474;52.236;5.114;2023-02-22T08:21:07;70.95;;;21.25;;
59169;SDS011;52474;52.236;5.114;2023-02-22T08:23:32;64.63;;;18.48;;
59169;SDS011;52474;52.236;5.114;2023-02-22T08:26:05;68.28;;;17.33;;
59169;SDS011;52474;52.236;5.114;2023-02-22T08:28:42;61.10;;;18.95;;
59169;SDS011;52474;52.236;5.114;2023-02-22T08:31:07;69.72;;;18.40;;
59169;SDS011;52474;52.236;5.114;2023-02-22T08:33:33;61.17;;;17.38;;
59169;SDS011;52474;52.236;5.114;2023-02-22T08:35:59;61.47;;;18.63;;
59169;SDS011;52474;52.236;5.114;2023-02-22T08:38:28;54.58;;;17.42;;
59169;SDS011;52474;52.236;5.114;2023-02-22T08:40:55;64.38;;;20.33;;
59169;SDS011;52474;52.236;5.114;2023-02-22T08:43:21;60.72;;;18.20;;
59169;SDS011;52474;52.236;5.114;2023-02-22T08:45:48;69.88;;;19.40;;
59169;SDS011;52474;52.236;5.114;2023-02-22T08:48:14;67.10;;;18.35;;
59169;SDS011;52474;52.236;5.114;2023-02-22T08:50:41;63.13;;;19.95;;
59169;SDS011;52474;52.236;5.114;2023-02-22T08:53:07;58.95;;;18.30;;
59169;SDS011;52474;52.236;5.114;2023-02-22T08:55:35;59.38;;;18.00;;
59169;SDS011;52474;52.236;5.114;2023-02-22T08:58:03;59.33;;;18.13;;
59169;SDS011;52474;52.236;5.114;2023-02-22T09:00:31;58.47;;;16.50;;
59169;SDS011;52474;52.236;5.114;2023-02-22T09:02:58;55.53;;;16.58;;
59169;SDS011;52474;52.236;5.114;2023-02-22T09:05:27;56.30;;;16.77;;
59169;SDS011;52474;52.236;5.114;2023-02-22T09:07:54;58.75;;;18.17;;
59169;SDS011;52474;52.236;5.114;2023-02-22T09:10:21;58.45;;;17.90;;
59169;SDS011;52474;52.236;5.114;2023-02-22T09:12:53;63.65;;;18.95;;
59169;SDS011;52474;52.236;5.114;2023-02-22T09:15:22;50.88;;;17.80;;
59169;SDS011;52474;52.236;5.114;2023-02-22T09:17:49;50.17;;;16.73;;
59169;SDS011;52474;52.236;5.114;2023-02-22T09:20:16;58.85;;;18.02;;
59169;SDS011;52474;52.236;5.114;2023-02-22T09:22:44;55.65;;;17.90;;
59169;SDS011;52474;52.236;5.114;2023-02-22T09:25:11;58.15;;;18.17;;
59169;SDS011;52474;52.236;5.114;2023-02-22T09:27:37;52.65;;;17.30;;
59169;SDS011;52474;52.236;5.114;2023-02-22T09:30:04;58.28;;;17.73;;
59169;SDS011;52474;52.236;5.114;2023-02-22T09:32:31;52.05;;;16.48;;
59169;SDS011;52474;52.236;5.114;2023-02-22T09:34:57;48.20;;;16.90;;
59169;SDS011;52474;52.236;5.114;2023-02-22T09:37:22;45.72;;;16.63;;
59169;SDS011;52474;52.236;5.114;2023-02-22T09:39:50;48.03;;;15.98;;
59169;SDS011;52474;52.236;5.114;2023-02-22T09:42:36;41.97;;;16.00;;
59169;SDS011;52474;52.236;5.114;2023-02-22T09:45:14;41.30;;;15.65;;
59169;SDS011;52474;52.236;5.114;2023-02-22T09:47:48;44.90;;;15.15;;
59169;SDS011;52474;52.236;5.114;2023-02-22T09:50:21;46.70;;;16.00;;
59169;SDS011;52474;52.236;5.114;2023-02-22T09:55:41;41.92;;;16.33;;
59169;SDS011;52474;52.236;5.114;2023-02-22T09:58:24;38.67;;;15.57;;
59169;SDS011;52474;52.236;5.114;2023-02-22T10:04:04;38.25;;;15.40;;
59169;SDS011;52474;52.236;5.114;2023-02-22T10:06:51;35.95;;;14.88;;
59169;SDS011;52474;52.236;5.114;2023-02-22T10:09:28;36.05;;;15.80;;
59169;SDS011;52474;52.236;5.114;2023-02-22T10:11:59;37.20;;;14.50;;
59169;SDS011;52474;52.236;5.114;2023-02-22T10:22:49;34.70;;;14.45;;
59169;SDS011;52474;52.236;5.114;2023-02-22T10:25:30;28.90;;;12.93;;
59169;SDS011;52474;52.236;5.114;2023-02-22T10:28:02;32.97;;;14.05;;
59169;SDS011;52474;52.236;5.114;2023-02-22T10:30:41;31.80;;;13.32;;
59169;SDS011;52474;52.236;5.114;2023-02-22T10:33:29;30.38;;;13.30;;
59169;SDS011;52474;52.236;5.114;2023-02-22T10:36:20;33.55;;;14.30;;
59169;SDS011;52474;52.236;5.114;2023-02-22T10:38:55;34.70;;;13.32;;
59169;SDS011;52474;52.236;5.114;2023-02-22T10:41:29;33.03;;;13.90;;
59169;SDS011;52474;52.236;5.114;2023-02-22T10:43:56;31.92;;;14.00;;
59169;SDS011;52474;52.236;5.114;2023-02-22T10:46:22;32.95;;;13.60;;
59169;SDS011;52474;52.236;5.114;2023-02-22T10:48:50;34.63;;;14.43;;
59169;SDS011;52474;52.236;5.114;2023-02-22T10:51:19;31.00;;;13.60;;
59169;SDS011;52474;52.236;5.114;2023-02-22T10:53:45;36.13;;;14.43;;
59169;SDS011;52474;52.236;5.114;2023-02-22T10:56:22;31.23;;;13.75;;
59169;SDS011;52474;52.236;5.114;2023-02-22T11:04:00;34.03;;;15.13;;
59169;SDS011;52474;52.236;5.114;2023-02-22T11:06:29;35.00;;;14.15;;
59169;SDS011;52474;52.236;5.114;2023-02-22T11:09:10;36.47;;;14.65;;
59169;SDS011;52474;52.236;5.114;2023-02-22T11:11:49;35.00;;;13.95;;
59169;SDS011;52474;52.236;5.114;2023-02-22T11:14:31;37.28;;;16.05;;
59169;SDS011;52474;52.236;5.114;2023-02-22T11:16:58;34.50;;;14.18;;
59169;SDS011;52474;52.236;5.114;2023-02-22T11:19:26;32.53;;;14.15;;
59169;SDS011;52474;52.236;5.114;2023-02-22T11:22:17;33.63;;;14.15;;
59169;SDS011;52474;52.236;5.114;2023-02-22T11:24:47;35.25;;;15.27;;
59169;SDS011;52474;52.236;5.114;2023-02-22T11:32:48;36.03;;;15.57;;
59169;SDS011;52474;52.236;5.114;2023-02-22T11:35:48;34.20;;;14.18;;
59169;SDS011;52474;52.236;5.114;2023-02-22T11:43:45;39.15;;;15.05;;
59169;SDS011;52474;52.236;5.114;2023-02-22T11:46:14;37.05;;;15.68;;
59169;SDS011;52474;52.236;5.114;2023-02-22T11:49:02;33.08;;;13.77;;
59169;SDS011;52474;52.236;5.114;2023-02-22T11:51:33;35.35;;;14.23;;
59169;SDS011;52474;52.236;5.114;2023-02-22T12:05:29;35.10;;;14.07;;
59169;SDS011;52474;52.236;5.114;2023-02-22T12:08:24;33.05;;;14.23;;
59169;SDS011;52474;52.236;5.114;2023-02-22T12:16:48;35.28;;;14.25;;
59169;SDS011;52474;52.236;5.114;2023-02-22T12:19:29;34.40;;;14.50;;
59169;SDS011;52474;52.236;5.114;2023-02-22T12:21:57;31.42;;;14.20;;
59169;SDS011;52474;52.236;5.114;2023-02-22T12:24:33;31.35;;;14.07;;
59169;SDS011;52474;52.236;5.114;2023-02-22T12:27:05;35.65;;;15.02;;
59169;SDS011;52474;52.236;5.114;2023-02-22T12:29:47;34.88;;;14.98;;
59169;SDS011;52474;52.236;5.114;2023-02-22T12:32:37;34.88;;;15.63;;
59169;SDS011;52474;52.236;5.114;2023-02-22T12:40:26;34.72;;;15.75;;
59169;SDS011;52474;52.236;5.114;2023-02-22T12:46:23;32.20;;;14.43;;
59169;SDS011;52474;52.236;5.114;2023-02-22T12:49:10;33.10;;;14.00;;
59169;SDS011;52474;52.236;5.114;2023-02-22T12:51:57;35.03;;;14.18;;
59169;SDS011;52474;52.236;5.114;2023-02-22T12:57:14;34.58;;;14.90;;
59169;SDS011;52474;52.236;5.114;2023-02-22T12:59:50;35.88;;;15.82;;
59169;SDS011;52474;52.236;5.114;2023-02-22T13:04:59;30.23;;;13.98;;
59169;SDS011;52474;52.236;5.114;2023-02-22T13:10:23;32.92;;;15.27;;
59169;SDS011;52474;52.236;5.114;2023-02-22T13:15:49;36.47;;;15.07;;
59169;SDS011;52474;52.236;5.114;2023-02-22T13:18:31;31.13;;;14.50;;
59169;SDS011;52474;52.236;5.114;2023-02-22T13:21:03;36.05;;;14.18;;
59169;SDS011;52474;52.236;5.114;2023-02-22T13:26:20;33.58;;;14.15;;
59169;SDS011;52474;52.236;5.114;2023-02-22T13:47:55;36.80;;;14.52;;
59169;SDS011;52474;52.236;5.114;2023-02-22T13:50:29;33.65;;;14.93;;
59169;SDS011;52474;52.236;5.114;2023-02-22T13:53:06;33.22;;;15.82;;
59169;SDS011;52474;52.236;5.114;2023-02-22T13:55:37;34.38;;;14.98;;
59169;SDS011;52474;52.236;5.114;2023-02-22T13:58:06;34.13;;;14.80;;
59169;SDS011;52474;52.236;5.114;2023-02-22T14:00:44;31.95;;;14.75;;
59169;SDS011;52474;52.236;5.114;2023-02-22T14:08:04;32.17;;;14.77;;
59169;SDS011;52474;52.236;5.114;2023-02-22T14:10:43;35.65;;;15.75;;
59169;SDS011;52474;52.236;5.114;2023-02-22T14:13:11;35.40;;;15.90;;
59169;SDS011;52474;52.236;5.114;2023-02-22T14:21:09;34.92;;;15.38;;
59169;SDS011;52474;52.236;5.114;2023-02-22T14:23:55;33.83;;;14.38;;
59169;SDS011;52474;52.236;5.114;2023-02-22T14:26:35;35.88;;;15.30;;
59169;SDS011;52474;52.236;5.114;2023-02-22T14:34:15;34.75;;;15.77;;
59169;SDS011;52474;52.236;5.114;2023-02-22T14:36:45;33.85;;;15.77;;
59169;SDS011;52474;52.236;5.114;2023-02-22T14:44:43;32.70;;;15.68;;
59169;SDS011;52474;52.236;5.114;2023-02-22T14:47:23;31.70;;;16.00;;
59169;SDS011;52474;52.236;5.114;2023-02-22T14:49:54;30.08;;;14.05;;
59169;SDS011;52474;52.236;5.114;2023-02-22T14:52:34;33.00;;;14.73;;
59169;SDS011;52474;52.236;5.114;2023-02-22T14:55:19;32.53;;;15.05;;
59169;SDS011;52474;52.236;5.114;2023-02-22T14:57:50;27.80;;;13.98;;
59169;SDS011;52474;52.236;5.114;2023-02-22T15:00:37;30.77;;;14.95;;
59169;SDS011;52474;52.236;5.114;2023-02-22T15:03:43;31.08;;;15.10;;
59169;SDS011;52474;52.236;5.114;2023-02-22T15:06:03;30.52;;;16.10;;
59169;SDS011;52474;52.236;5.114;2023-02-22T15:08:30;34.10;;;15.10;;
59169;SDS011;52474;52.236;5.114;2023-02-22T15:10:58;31.15;;;15.35;;
59169;SDS011;52474;52.236;5.114;2023-02-22T15:13:27;29.88;;;15.80;;
59169;SDS011;52474;52.236;5.114;2023-02-22T15:16:06;33.63;;;15.88;;
59169;SDS011;52474;52.236;5.114;2023-02-22T15:18:45;30.27;;;15.93;;
59169;SDS011;52474;52.236;5.114;2023-02-22T15:21:13;30.63;;;15.82;;
59169;SDS011;52474;52.236;5.114;2023-02-22T15:23:42;31.98;;;15.93;;
59169;SDS011;52474;52.236;5.114;2023-02-22T15:26:18;30.90;;;15.15;;
59169;SDS011;52474;52.236;5.114;2023-02-22T15:28:47;32.67;;;15.48;;
59169;SDS011;52474;52.236;5.114;2023-02-22T15:31:23;29.63;;;15.27;;
59169;SDS011;52474;52.236;5.114;2023-02-22T15:33:51;30.15;;;15.60;;
59169;SDS011;52474;52.236;5.114;2023-02-22T15:36:18;29.00;;;14.98;;
59169;SDS011;52474;52.236;5.114;2023-02-22T15:38:51;28.80;;;15.48;;
59169;SDS011;52474;52.236;5.114;2023-02-22T15:41:28;29.15;;;16.38;;
59169;SDS011;52474;52.236;5.114;2023-02-22T15:44:05;30.67;;;16.40;;
59169;SDS011;52474;52.236;5.114;2023-02-22T15:46:34;31.75;;;16.77;;
59169;SDS011;52474;52.236;5.114;2023-02-22T15:51:35;30.77;;;16.73;;
59169;SDS011;52474;52.236;5.114;2023-02-22T15:54:04;31.30;;;15.95;;
59169;SDS011;52474;52.236;5.114;2023-02-22T15:56:34;32.28;;;17.52;;
59169;SDS011;52474;52.236;5.114;2023-02-22T15:59:02;31.58;;;16.92;;
59169;SDS011;52474;52.236;5.114;2023-02-22T16:01:37;31.48;;;15.85;;
59169;SDS011;52474;52.236;5.114;2023-02-22T16:04:06;36.15;;;18.65;;
59169;SDS011;52474;52.236;5.114;2023-02-22T16:06:39;34.05;;;17.73;;
59169;SDS011;52474;52.236;5.114;2023-02-22T16:09:09;32.72;;;17.67;;
59169;SDS011;52474;52.236;5.114;2023-02-22T16:11:39;34.17;;;17.60;;
59169;SDS011;52474;52.236;5.114;2023-02-22T16:20:00;29.92;;;17.15;;
59169;SDS011;52474;52.236;5.114;2023-02-22T16:22:47;36.22;;;18.98;;
59169;SDS011;52474;52.236;5.114;2023-02-22T16:27:53;34.38;;;18.20;;
59169;SDS011;52474;52.236;5.114;2023-02-22T16:30:24;39.13;;;18.85;;
59169;SDS011;52474;52.236;5.114;2023-02-22T16:32:56;33.90;;;18.85;;
59169;SDS011;52474;52.236;5.114;2023-02-22T16:35:23;35.72;;;19.33;;
59169;SDS011;52474;52.236;5.114;2023-02-22T16:40:30;37.22;;;18.65;;
59169;SDS011;52474;52.236;5.114;2023-02-22T16:43:03;36.50;;;19.02;;
59169;SDS011;52474;52.236;5.114;2023-02-22T16:45:31;36.72;;;19.67;;
59169;SDS011;52474;52.236;5.114;2023-02-22T16:48:00;41.45;;;20.88;;
59169;SDS011;52474;52.236;5.114;2023-02-22T16:50:29;36.08;;;18.58;;
59169;SDS011;52474;52.236;5.114;2023-02-22T16:52:55;34.95;;;19.02;;
59169;SDS011;52474;52.236;5.114;2023-02-22T16:55:22;38.83;;;20.95;;
59169;SDS011;52474;52.236;5.114;2023-02-22T16:57:49;40.92;;;20.38;;
59169;SDS011;52474;52.236;5.114;2023-02-22T17:02:58;40.65;;;19.77;;
59169;SDS011;52474;52.236;5.114;2023-02-22T17:05:28;39.63;;;21.35;;
59169;SDS011;52474;52.236;5.114;2023-02-22T17:08:01;40.72;;;22.77;;
59169;SDS011;52474;52.236;5.114;2023-02-22T17:10:30;38.75;;;21.65;;
59169;SDS011;52474;52.236;5.114;2023-02-22T17:12:57;39.50;;;20.70;;
59169;SDS011;52474;52.236;5.114;2023-02-22T17:15:25;38.53;;;21.38;;
59169;SDS011;52474;52.236;5.114;2023-02-22T17:17:53;40.35;;;21.08;;
59169;SDS011;52474;52.236;5.114;2023-02-22T17:20:21;42.15;;;22.38;;